createdAt,value
2023-03-06T00:00:35.542Z,10.13
2023-03-06T00:03:02.749Z,11.73
2023-03-06T00:05:29.642Z,14.18
2023-03-06T00:07:56.535Z,14.68
2023-03-06T00:10:26.309Z,13.32
2023-03-06T00:12:58.822Z,11.77
2023-03-06T00:15:26.512Z,12.38
2023-03-06T00:17:53.735Z,12.13
2023-03-06T00:20:21.857Z,13.52
2023-03-06T00:22:49.689Z,11.70
2023-03-06T00:25:19.145Z,10.30
2023-03-06T00:27:46.222Z,10.15
2023-03-06T00:30:18.669Z,12.20
2023-03-06T00:32:45.505Z,8.45
2023-03-06T00:35:13.062Z,12.50
2023-03-06T00:37:40.534Z,10.32
2023-03-06T00:40:10.060Z,11.52
2023-03-06T00:42:36.795Z,8.35
2023-03-06T00:45:03.864Z,9.98
2023-03-06T00:47:30.550Z,9.27
2023-03-06T00:49:57.221Z,10.35
2023-03-06T00:52:23.922Z,15.40
2023-03-06T00:54:50.656Z,10.65
2023-03-06T00:57:17.382Z,17.38
2023-03-06T00:59:44.102Z,10.93
2023-03-06T01:02:10.794Z,10.55
2023-03-06T01:04:37.572Z,14.93
2023-03-06T01:07:04.295Z,10.35
2023-03-06T01:09:31.394Z,12.77
2023-03-06T01:11:58.335Z,12.65
2023-03-06T01:14:25.173Z,15.15
2023-03-06T01:16:51.838Z,10.32
2023-03-06T01:19:18.684Z,11.38
2023-03-06T01:21:45.524Z,9.95
2023-03-06T01:24:12.197Z,14.27
2023-03-06T01:26:38.922Z,13.18
2023-03-06T01:29:06.299Z,11.88
2023-03-06T01:31:33.449Z,9.45
2023-03-06T01:34:01.258Z,9.90
2023-03-06T01:36:27.895Z,10.88
2023-03-06T01:38:54.609Z,9.10
2023-03-06T01:41:21.532Z,9.80
2023-03-06T01:43:48.654Z,11.55
2023-03-06T01:46:25.711Z,11.43
2023-03-06T01:49:13.186Z,11.60
2023-03-06T01:51:49.348Z,11.70
2023-03-06T01:56:48.740Z,9.93
2023-03-06T01:59:16.406Z,8.10
2023-03-06T02:01:44.466Z,11.13
2023-03-06T02:04:11.870Z,11.05
2023-03-06T02:06:43.286Z,10.18
2023-03-06T02:09:12.039Z,12.00
2023-03-06T02:11:43.722Z,12.00
2023-03-06T02:14:16.143Z,10.02
2023-03-06T02:16:43.500Z,10.30
2023-03-06T02:19:37.593Z,11.18
2023-03-06T02:22:04.543Z,11.90
2023-03-06T02:24:41.181Z,11.35
2023-03-06T02:27:09.606Z,11.18
2023-03-06T02:29:36.447Z,14.32
2023-03-06T02:32:03.602Z,9.80
2023-03-06T02:34:30.347Z,13.88
2023-03-06T02:37:06.385Z,10.45
2023-03-06T02:42:00.617Z,14.55
2023-03-06T02:44:28.596Z,11.65
2023-03-06T02:46:55.287Z,14.98
2023-03-06T02:49:21.978Z,17.17
2023-03-06T02:51:48.674Z,11.18
2023-03-06T02:54:18.246Z,12.95
2023-03-06T02:56:45.546Z,11.90
2023-03-06T02:59:12.918Z,12.48
2023-03-06T03:01:39.654Z,15.18
2023-03-06T03:04:06.421Z,12.82
2023-03-06T03:06:33.121Z,16.73
2023-03-06T03:08:59.791Z,16.30
2023-03-06T03:11:26.491Z,12.90
2023-03-06T03:13:53.172Z,14.40
2023-03-06T03:16:19.920Z,13.85
2023-03-06T03:18:48.078Z,16.17
2023-03-06T03:21:15.315Z,16.60
2023-03-06T03:23:42.012Z,13.73
2023-03-06T03:26:10.074Z,13.70
2023-03-06T03:28:37.569Z,15.25
2023-03-06T03:31:06.461Z,14.40
2023-03-06T03:33:33.734Z,17.73
2023-03-06T03:36:02.998Z,13.60
2023-03-06T03:38:30.728Z,16.90
2023-03-06T03:40:57.685Z,15.52
2023-03-06T03:43:24.374Z,14.75
2023-03-06T03:45:53.478Z,13.95
2023-03-06T03:48:20.418Z,13.88
2023-03-06T03:50:47.098Z,19.27
2023-03-06T03:53:13.895Z,19.08
2023-03-06T03:55:40.587Z,16.83
2023-03-06T03:58:07.227Z,14.75
2023-03-06T04:00:33.887Z,16.42
2023-03-06T04:03:01.875Z,17.33
2023-03-06T04:05:28.512Z,14.57
2023-03-06T04:07:55.199Z,16.45
2023-03-06T04:10:21.895Z,18.08
2023-03-06T04:12:48.533Z,20.65
2023-03-06T04:15:15.216Z,15.02
2023-03-06T04:17:41.854Z,15.48
2023-03-06T04:20:09.541Z,14.90
2023-03-06T04:22:36.228Z,12.48
2023-03-06T04:25:02.972Z,17.23
2023-03-06T04:27:29.624Z,20.50
2023-03-06T04:29:56.516Z,23.23
2023-03-06T04:32:23.894Z,18.27
2023-03-06T04:34:50.751Z,19.73
2023-03-06T04:37:22.894Z,20.42
2023-03-06T04:39:49.996Z,16.83
2023-03-06T04:42:17.419Z,21.75
2023-03-06T04:44:44.377Z,15.93
2023-03-06T04:47:12.002Z,20.73
2023-03-06T04:49:38.829Z,17.65
2023-03-06T04:52:05.802Z,18.58
2023-03-06T04:54:32.757Z,17.42
2023-03-06T04:56:59.539Z,19.42
2023-03-06T04:59:26.287Z,23.55
2023-03-06T05:01:54.051Z,16.33
2023-03-06T05:04:20.759Z,17.80
2023-03-06T05:06:47.411Z,19.02
2023-03-06T05:09:14.077Z,21.17
2023-03-06T05:11:40.706Z,19.00
2023-03-06T05:14:07.366Z,21.27
2023-03-06T05:16:34.122Z,19.67
2023-03-06T05:19:00.832Z,19.90
2023-03-06T05:21:27.535Z,25.17
2023-03-06T05:23:54.335Z,23.42
2023-03-06T05:26:21.026Z,19.80
2023-03-06T05:28:47.742Z,24.70
2023-03-06T05:31:14.483Z,23.45
2023-03-06T05:33:41.155Z,23.65
2023-03-06T05:36:09.452Z,29.30
2023-03-06T05:38:36.154Z,22.80
2023-03-06T05:41:02.888Z,21.75
2023-03-06T05:43:29.540Z,22.70
2023-03-06T05:46:03.947Z,25.23
2023-03-06T05:48:30.820Z,20.95
2023-03-06T05:50:58.831Z,18.83
2023-03-06T05:53:26.721Z,19.40
2023-03-06T05:55:58.077Z,25.73
2023-03-06T05:58:24.934Z,19.77
2023-03-06T06:00:52.100Z,23.15
2023-03-06T06:03:19.392Z,22.25
2023-03-06T06:05:46.553Z,30.58
2023-03-06T06:08:13.440Z,25.15
2023-03-06T06:10:40.180Z,25.73
2023-03-06T06:13:07.371Z,23.77
2023-03-06T06:15:34.466Z,25.83
2023-03-06T06:18:03.776Z,24.48
2023-03-06T06:20:30.504Z,21.73
2023-03-06T06:22:57.264Z,23.17
2023-03-06T06:25:23.960Z,25.55
2023-03-06T06:27:50.604Z,28.30
2023-03-06T06:30:17.614Z,26.45
2023-03-06T06:32:44.292Z,22.85
2023-03-06T06:35:11.048Z,26.83
2023-03-06T06:37:37.743Z,21.23
2023-03-06T06:40:05.739Z,26.98
2023-03-06T06:42:39.079Z,24.80
2023-03-06T06:45:06.976Z,21.65
2023-03-06T06:47:34.295Z,24.42
2023-03-06T06:50:01.101Z,23.83
2023-03-06T06:52:28.002Z,28.92
2023-03-06T06:54:54.865Z,26.60
2023-03-06T06:57:21.897Z,24.10
2023-03-06T06:59:48.624Z,36.35
2023-03-06T07:02:16.437Z,27.42
2023-03-06T07:04:56.549Z,27.48
2023-03-06T07:07:29.284Z,26.45
2023-03-06T07:09:56.444Z,31.88
2023-03-06T07:12:23.260Z,28.52
2023-03-06T07:14:50.006Z,30.67
2023-03-06T07:17:16.752Z,26.92
2023-03-06T07:19:43.394Z,28.38
2023-03-06T07:22:10.195Z,30.65
2023-03-06T07:24:36.892Z,29.70
2023-03-06T07:27:03.764Z,30.75
2023-03-06T07:29:32.910Z,26.20
2023-03-06T07:31:59.925Z,29.13
2023-03-06T07:34:26.626Z,30.90
2023-03-06T07:36:53.328Z,30.45
2023-03-06T07:39:20.047Z,32.50
2023-03-06T07:41:46.753Z,26.92
2023-03-06T07:44:13.441Z,33.10
2023-03-06T07:46:40.243Z,35.45
2023-03-06T07:49:06.897Z,30.33
2023-03-06T07:51:33.569Z,34.08
2023-03-06T07:54:00.310Z,30.35
2023-03-06T07:56:26.973Z,32.17
2023-03-06T07:58:55.324Z,36.05
2023-03-06T08:01:25.671Z,38.45
2023-03-06T08:03:52.892Z,37.17
2023-03-06T08:06:23.295Z,31.20
2023-03-06T08:08:51.940Z,33.10
2023-03-06T08:11:21.149Z,34.88
2023-03-06T08:13:48.846Z,28.27
2023-03-06T08:16:17.393Z,30.02
2023-03-06T08:18:46.155Z,27.10
2023-03-06T08:21:15.859Z,30.15
2023-03-06T08:23:42.983Z,31.10
2023-03-06T08:26:15.495Z,28.00
2023-03-06T08:28:42.371Z,27.48
2023-03-06T08:31:11.917Z,26.83
2023-03-06T08:33:39.937Z,30.30
2023-03-06T08:36:06.913Z,26.10
2023-03-06T08:38:33.643Z,26.15
2023-03-06T08:41:00.372Z,25.33
2023-03-06T08:43:27.139Z,23.50
2023-03-06T08:45:58.238Z,28.20
2023-03-06T08:48:25.515Z,26.83
2023-03-06T08:50:52.476Z,25.13
2023-03-06T08:53:19.577Z,24.38
2023-03-06T08:55:46.498Z,27.80
2023-03-06T08:58:13.382Z,26.90
2023-03-06T09:00:40.365Z,28.40
2023-03-06T09:03:07.063Z,30.63
2023-03-06T09:05:33.749Z,38.97
2023-03-06T09:08:00.535Z,27.77
2023-03-06T09:10:28.591Z,23.73
2023-03-06T09:12:55.525Z,27.40
2023-03-06T09:15:23.728Z,25.92
2023-03-06T09:17:51.066Z,24.75
2023-03-06T09:20:18.730Z,29.35
2023-03-06T09:22:45.872Z,29.05
2023-03-06T09:25:13.765Z,26.83
2023-03-06T09:27:41.159Z,25.38
2023-03-06T09:30:08.770Z,25.92
2023-03-06T09:32:35.512Z,26.63
2023-03-06T09:35:02.279Z,21.67
2023-03-06T09:37:28.993Z,29.70
2023-03-06T09:39:56.185Z,27.27
2023-03-06T09:42:23.770Z,27.75
2023-03-06T09:45:01.138Z,31.02
2023-03-06T09:47:42.929Z,28.88
2023-03-06T09:50:31.373Z,27.60
2023-03-06T09:53:16.965Z,28.13
2023-03-06T09:55:48.322Z,29.65
2023-03-06T09:58:21.946Z,27.83
2023-03-06T10:00:51.422Z,27.08
2023-03-06T10:03:41.356Z,26.70
2023-03-06T10:06:13.286Z,25.58
2023-03-06T10:09:05.585Z,33.45
2023-03-06T10:11:45.432Z,28.73
2023-03-06T10:14:38.730Z,31.50
2023-03-06T10:17:06.482Z,31.65
2023-03-06T10:19:39.950Z,24.80
2023-03-06T10:22:38.922Z,27.70
2023-03-06T10:25:31.920Z,32.80
2023-03-06T10:28:12.574Z,24.55
2023-03-06T10:30:52.942Z,24.58
2023-03-06T10:33:54.043Z,22.98
2023-03-06T10:36:22.741Z,25.40
2023-03-06T10:38:49.403Z,28.83
2023-03-06T10:41:29.417Z,32.92
2023-03-06T10:44:05.214Z,25.13
2023-03-06T10:46:37.273Z,26.42
2023-03-06T10:49:07.353Z,20.55
2023-03-06T10:51:35.466Z,24.25
2023-03-06T10:54:14.344Z,19.50
2023-03-06T10:56:43.352Z,22.88
2023-03-06T10:59:17.139Z,26.55
2023-03-06T11:01:45.263Z,27.77
2023-03-06T11:04:35.786Z,23.67
2023-03-06T11:07:06.740Z,22.73
2023-03-06T11:09:33.880Z,19.70
2023-03-06T11:12:38.578Z,23.23
2023-03-06T11:15:14.371Z,17.13
2023-03-06T11:17:57.653Z,22.42
2023-03-06T11:20:51.929Z,17.90
2023-03-06T11:23:40.435Z,19.65
2023-03-06T11:26:17.799Z,24.42
2023-03-06T11:29:16.087Z,21.13
2023-03-06T11:32:16.465Z,21.88
2023-03-06T11:35:04.538Z,17.88
2023-03-06T11:37:53.893Z,18.77
2023-03-06T11:40:31.910Z,16.60
2023-03-06T11:43:13.450Z,19.63
2023-03-06T11:45:58.134Z,18.33
2023-03-06T11:48:39.352Z,19.40
2023-03-06T11:51:21.336Z,17.25
2023-03-06T11:53:48.728Z,19.15
2023-03-06T11:56:31.875Z,19.05
2023-03-06T11:59:08.042Z,21.35
2023-03-06T12:02:02.910Z,16.52
2023-03-06T12:04:39.267Z,17.23
2023-03-06T12:07:26.389Z,27.02
2023-03-06T12:10:20.047Z,34.15
2023-03-06T12:13:08.245Z,32.65
2023-03-06T12:16:06.170Z,22.48
2023-03-06T12:19:09.747Z,30.42
2023-03-06T12:21:51.499Z,20.63
2023-03-06T12:24:35.729Z,23.80
2023-03-06T12:27:29.722Z,21.55
2023-03-06T12:29:59.389Z,28.25
2023-03-06T12:32:35.068Z,22.33
2023-03-06T12:35:18.905Z,17.70
2023-03-06T12:38:08.161Z,17.88
2023-03-06T12:41:16.528Z,14.85
2023-03-06T12:43:48.814Z,30.80
2023-03-06T12:46:44.699Z,35.97
2023-03-06T12:49:32.639Z,23.00
2023-03-06T12:52:00.943Z,25.45
2023-03-06T12:54:30.976Z,17.92
2023-03-06T12:56:59.773Z,19.02
2023-03-06T12:59:43.953Z,16.13
2023-03-06T13:02:29.341Z,15.02
2023-03-06T13:05:17.373Z,20.40
2023-03-06T13:08:00.134Z,15.57
2023-03-06T13:10:35.660Z,17.08
2023-03-06T13:13:20.798Z,13.93
2023-03-06T13:16:13.603Z,14.25
2023-03-06T13:18:43.314Z,14.63
2023-03-06T13:21:45.904Z,12.77
2023-03-06T13:24:17.294Z,15.30
2023-03-06T13:26:43.912Z,14.35
2023-03-06T13:29:38.160Z,14.85
2023-03-06T13:32:15.467Z,17.80
2023-03-06T13:34:46.796Z,15.60
2023-03-06T13:37:20.141Z,17.55
2023-03-06T13:39:56.719Z,17.40
2023-03-06T13:42:31.883Z,16.95
2023-03-06T13:45:24.648Z,15.55
2023-03-06T13:50:46.171Z,21.13
2023-03-06T13:53:19.526Z,19.10
2023-03-06T13:56:00.914Z,16.40
2023-03-06T13:58:53.356Z,16.05
2023-03-06T14:01:20.010Z,18.02
2023-03-06T14:03:55.369Z,35.63
2023-03-06T14:06:34.591Z,19.23
2023-03-06T14:09:06.686Z,19.45
2023-03-06T14:11:35.416Z,14.80
2023-03-06T14:14:02.507Z,16.92
2023-03-06T14:16:48.855Z,13.68
2023-03-06T14:19:17.544Z,12.68
2023-03-06T14:21:56.262Z,14.70
2023-03-06T14:24:34.970Z,14.75
2023-03-06T14:27:01.879Z,17.13
2023-03-06T14:29:30.597Z,14.40
2023-03-06T14:32:00.068Z,16.48
2023-03-06T14:34:30.081Z,24.65
2023-03-06T14:37:05.481Z,22.00
2023-03-06T14:39:38.925Z,23.98
2023-03-06T14:42:15.493Z,15.80
2023-03-06T14:44:42.465Z,15.05
2023-03-06T14:47:27.283Z,17.13
2023-03-06T14:50:18.802Z,14.98
2023-03-06T14:52:46.051Z,15.98
2023-03-06T14:55:19.069Z,15.75
2023-03-06T14:57:54.317Z,12.68
2023-03-06T15:00:24.364Z,32.37
2023-03-06T15:02:54.202Z,18.88
2023-03-06T15:05:28.212Z,18.17
2023-03-06T15:08:00.984Z,16.00
2023-03-06T15:10:31.082Z,15.18
2023-03-06T15:13:09.359Z,15.57
2023-03-06T15:15:36.174Z,18.30
2023-03-06T15:18:03.213Z,15.82
2023-03-06T15:20:44.620Z,22.63
2023-03-06T15:23:33.878Z,26.75
2023-03-06T15:26:03.964Z,15.98
2023-03-06T15:28:38.494Z,16.83
2023-03-06T15:31:27.829Z,18.13
2023-03-06T15:34:15.436Z,17.65
2023-03-06T15:36:48.216Z,21.00
2023-03-06T15:39:29.794Z,20.75
2023-03-06T15:42:01.502Z,20.25
2023-03-06T15:44:32.147Z,22.88
2023-03-06T15:47:08.476Z,20.88
2023-03-06T15:49:37.400Z,20.33
2023-03-06T15:52:04.436Z,18.38
2023-03-06T15:54:32.925Z,19.05
2023-03-06T15:57:00.110Z,24.13
2023-03-06T15:59:32.852Z,28.40
2023-03-06T16:02:04.178Z,29.92
2023-03-06T16:04:30.906Z,20.17
2023-03-06T16:06:57.636Z,25.23
2023-03-06T16:09:24.295Z,21.17
2023-03-06T16:11:51.101Z,18.23
2023-03-06T16:14:23.908Z,22.40
2023-03-06T16:16:52.384Z,22.73
2023-03-06T16:19:28.695Z,23.02
2023-03-06T16:21:56.268Z,21.17
2023-03-06T16:24:26.596Z,20.15
2023-03-06T16:26:54.871Z,21.55
2023-03-06T16:29:23.999Z,21.45
2023-03-06T16:31:51.386Z,24.33
2023-03-06T16:34:21.316Z,21.50
2023-03-06T16:36:53.619Z,22.83
2023-03-06T16:39:23.268Z,24.23
2023-03-06T16:41:50.263Z,24.77
2023-03-06T16:44:17.005Z,21.65
2023-03-06T16:46:46.145Z,23.23
2023-03-06T16:49:21.979Z,24.13
2023-03-06T16:51:49.550Z,24.98
2023-03-06T16:54:17.137Z,23.60
2023-03-06T16:56:44.421Z,27.75
2023-03-06T16:59:12.075Z,27.40
2023-03-06T17:01:40.896Z,24.08
2023-03-06T17:04:07.952Z,24.63
2023-03-06T17:06:34.701Z,23.70
2023-03-06T17:09:01.469Z,23.48
2023-03-06T17:11:28.125Z,24.55
2023-03-06T17:13:55.413Z,24.27
2023-03-06T17:16:22.426Z,23.25
2023-03-06T17:18:49.711Z,27.23
2023-03-06T17:21:17.204Z,25.27
2023-03-06T17:23:44.537Z,23.77
2023-03-06T17:26:18.764Z,25.08
2023-03-06T17:28:46.518Z,27.15
2023-03-06T17:31:17.661Z,23.13
2023-03-06T17:33:45.202Z,25.52
2023-03-06T17:36:14.290Z,26.58
2023-03-06T17:38:42.038Z,26.00
2023-03-06T17:41:10.336Z,25.23
2023-03-06T17:43:37.764Z,24.50
2023-03-06T17:46:06.450Z,23.17
2023-03-06T17:48:33.966Z,23.55
2023-03-06T17:51:00.953Z,27.45
2023-03-06T17:53:28.076Z,30.50
2023-03-06T17:55:57.923Z,27.15
2023-03-06T17:58:25.456Z,32.58
2023-03-06T18:00:53.683Z,28.20
2023-03-06T18:03:20.829Z,28.25
2023-03-06T18:05:47.609Z,31.90
2023-03-06T18:08:14.481Z,27.88
2023-03-06T18:10:42.037Z,23.05
2023-03-06T18:13:10.555Z,24.90
2023-03-06T18:15:40.996Z,28.33
2023-03-06T18:18:08.554Z,27.50
2023-03-06T18:20:40.602Z,29.23
2023-03-06T18:23:07.416Z,30.52
2023-03-06T18:25:34.700Z,31.33
2023-03-06T18:28:01.395Z,31.77
2023-03-06T18:30:28.149Z,29.92
2023-03-06T18:32:55.080Z,28.80
2023-03-06T18:35:21.907Z,32.22
2023-03-06T18:37:48.637Z,30.08
2023-03-06T18:40:15.353Z,31.55
2023-03-06T18:42:42.103Z,32.75
2023-03-06T18:45:09.699Z,32.67
2023-03-06T18:47:36.390Z,32.05
2023-03-06T18:50:03.227Z,30.08
2023-03-06T18:52:29.935Z,35.58
2023-03-06T18:54:56.694Z,33.65
2023-03-06T18:57:23.428Z,32.20
2023-03-06T18:59:50.217Z,33.40
2023-03-06T19:02:17.068Z,29.63
2023-03-06T19:04:43.822Z,35.25
2023-03-06T19:07:12.448Z,37.55
2023-03-06T19:09:39.249Z,31.05
2023-03-06T19:12:06.329Z,37.67
2023-03-06T19:14:33.024Z,36.58
2023-03-06T19:16:59.725Z,33.17
2023-03-06T19:19:26.828Z,35.85
2023-03-06T19:21:53.764Z,31.88
2023-03-06T19:24:20.510Z,31.08
2023-03-06T19:26:47.186Z,35.05
2023-03-06T19:29:13.852Z,37.10
2023-03-06T19:31:41.192Z,36.67
2023-03-06T19:34:07.984Z,31.92
2023-03-06T19:36:38.405Z,33.92
2023-03-06T19:39:06.960Z,39.65
2023-03-06T19:41:34.469Z,28.75
2023-03-06T19:44:03.225Z,31.23
2023-03-06T19:46:30.004Z,28.67
2023-03-06T19:49:01.650Z,27.30
2023-03-06T19:51:29.056Z,29.90
2023-03-06T19:53:57.487Z,28.52
2023-03-06T19:56:27.395Z,29.27
2023-03-06T19:58:54.621Z,30.73
2023-03-06T20:01:23.381Z,29.75
2023-03-06T20:03:52.804Z,29.90
2023-03-06T20:06:20.419Z,26.27
2023-03-06T20:08:47.632Z,25.80
2023-03-06T20:11:17.074Z,25.95
2023-03-06T20:13:47.456Z,25.42
2023-03-06T20:16:14.999Z,25.30
2023-03-06T20:18:42.064Z,21.40
2023-03-06T20:21:08.905Z,22.38
2023-03-06T20:23:36.643Z,22.48
2023-03-06T20:26:06.025Z,25.50
2023-03-06T20:28:33.713Z,21.92
2023-03-06T20:31:19.218Z,25.65
2023-03-06T20:33:47.980Z,23.40
2023-03-06T20:36:21.144Z,25.48
2023-03-06T20:38:48.275Z,27.23
2023-03-06T20:41:15.692Z,23.73
2023-03-06T20:43:42.544Z,24.67
2023-03-06T20:46:11.028Z,20.40
2023-03-06T20:48:38.019Z,22.85
2023-03-06T20:51:07.806Z,22.15
2023-03-06T20:53:37.358Z,24.05
2023-03-06T20:56:04.989Z,21.33
2023-03-06T20:58:32.523Z,25.08
2023-03-06T21:01:01.378Z,24.05
2023-03-06T21:03:29.578Z,26.48
2023-03-06T21:05:56.876Z,21.35
2023-03-06T21:08:23.807Z,25.40
2023-03-06T21:10:51.117Z,24.15
2023-03-06T21:13:19.098Z,25.70
2023-03-06T21:15:47.414Z,27.23
2023-03-06T21:18:14.568Z,27.25
2023-03-06T21:20:42.341Z,26.20
2023-03-06T21:23:09.296Z,25.17
2023-03-06T21:25:36.182Z,22.98
2023-03-06T21:28:03.016Z,24.00
2023-03-06T21:30:30.206Z,24.08
2023-03-06T21:32:56.979Z,21.90
2023-03-06T21:35:23.793Z,23.85
2023-03-06T21:37:50.521Z,23.17
2023-03-06T21:40:17.412Z,25.70
2023-03-06T21:42:44.216Z,26.58
2023-03-06T21:45:11.976Z,24.27
2023-03-06T21:47:40.679Z,22.90
2023-03-06T21:50:11.773Z,27.50
2023-03-06T21:52:38.512Z,27.73
2023-03-06T21:55:06.202Z,25.75
2023-03-06T21:57:32.909Z,26.52
2023-03-06T21:59:59.693Z,26.80
2023-03-06T22:02:26.595Z,25.38
2023-03-06T22:04:53.857Z,28.58
2023-03-06T22:07:20.911Z,28.75
2023-03-06T22:09:51.516Z,25.17
2023-03-06T22:12:18.199Z,22.85
2023-03-06T22:14:44.936Z,23.13
2023-03-06T22:17:11.623Z,24.08
2023-03-06T22:19:38.298Z,28.45
2023-03-06T22:22:05.438Z,30.80
2023-03-06T22:24:32.215Z,26.20
2023-03-06T22:26:58.930Z,25.17
2023-03-06T22:29:26.352Z,29.55
2023-03-06T22:31:53.150Z,25.10
2023-03-06T22:34:19.967Z,24.75
2023-03-06T22:36:46.802Z,25.65
2023-03-06T22:39:14.027Z,29.08
2023-03-06T22:41:40.733Z,21.67
2023-03-06T22:44:07.583Z,32.03
2023-03-06T22:46:34.264Z,22.70
2023-03-06T22:49:02.209Z,25.38
2023-03-06T22:51:29.668Z,31.55
2023-03-06T22:53:56.402Z,24.20
2023-03-06T22:56:23.210Z,23.17
2023-03-06T22:58:50.088Z,23.83
2023-03-06T23:01:23.040Z,21.70
2023-03-06T23:03:51.836Z,23.88
2023-03-06T23:06:27.680Z,27.60
2023-03-06T23:09:20.569Z,27.98
2023-03-06T23:11:50.523Z,24.65
2023-03-06T23:14:19.042Z,28.30
2023-03-06T23:16:46.154Z,24.95
2023-03-06T23:19:12.887Z,23.35
2023-03-06T23:21:39.577Z,22.27
2023-03-06T23:24:07.472Z,24.58
2023-03-06T23:26:34.586Z,21.75
2023-03-06T23:29:01.814Z,20.17
2023-03-06T23:31:30.345Z,22.63
2023-03-06T23:33:59.129Z,22.48
2023-03-06T23:36:25.966Z,23.48
2023-03-06T23:38:52.815Z,23.33
2023-03-06T23:41:20.676Z,20.40
2023-03-06T23:43:48.458Z,22.17
2023-03-06T23:46:15.356Z,22.33
2023-03-06T23:48:43.137Z,22.70
2023-03-06T23:51:15.098Z,20.30
2023-03-06T23:53:42.713Z,21.15
2023-03-06T23:56:09.877Z,21.63
2023-03-06T23:58:36.691Z,25.40
